Terminal Aerodrome Forecast
Issued by NWS Mt. Holly, NJ

Home | Current Version | Previous Version | Text Only | Print | Product List | Glossary On
Versions: 1 2 3 4 5 6 7 8 9 10 11 12 13 14 15 16 17 18 19 20 21 22
000
FTUS41 KPHI 260315 AAB
TAFTTN
TAF AMD
KTTN 260315Z 2603/2624 33008KT P6SM SCT015 OVC035
      TEMPO 2603/2606 3SM SHRA BR OVC015
     FM260600 VRB04KT 3SM BR OVC005
     FM261100 28008KT 5SM BR SCT008 OVC015
     FM261400 30012KT P6SM SCT015 BKN050
     FM261700 30012G19KT P6SM BKN050=

USA.gov is the U.S. government's official web portal to all federal, state and local government web resources and services.